Contact Info

Augusta Flying Club, Inc

KDNL 022353Z AUTO 22005KT 10SM FEW065 28/15 A3010 RMK AO2 SLP188 T02830150 10306 20278 55006


TAF AMD KDNL 022037Z 0221/0318 20006KT P6SM SCT050 FM030100 17004KT P6SM FEW250 FM031400 23006KT P6SM FEW050 SCT250

info@augustaflyingclub.com

Send us a message